createdAt,value
2019-01-03T00:00:07.154Z,1033.04
2019-01-03T00:01:07.767Z,1033.00
2019-01-03T00:02:07.148Z,1032.97
2019-01-03T00:03:07.770Z,1032.99
2019-01-03T00:04:07.140Z,1033.01
2019-01-03T00:05:07.100Z,1033.03
2019-01-03T00:06:07.781Z,1033.04
2019-01-03T00:07:07.093Z,1033.07
2019-01-03T00:08:07.773Z,1033.05
2019-01-03T00:09:07.772Z,1033.12
2019-01-03T00:10:07.775Z,1033.13
2019-01-03T00:11:07.034Z,1033.15
2019-01-03T00:12:07.036Z,1033.12
2019-01-03T00:13:07.772Z,1033.20
2019-01-03T00:14:07.007Z,1033.10
2019-01-03T00:15:06.994Z,1033.11
2019-01-03T00:16:06.978Z,1033.08
2019-01-03T00:17:06.983Z,1032.98
2019-01-03T00:18:07.782Z,1033.02
2019-01-03T00:19:07.775Z,1032.98
2019-01-03T00:20:07.772Z,1032.96
2019-01-03T00:21:06.923Z,1032.99
2019-01-03T00:22:06.924Z,1033.02
2019-01-03T00:23:06.899Z,1033.01
2019-01-03T00:24:06.887Z,1033.00
2019-01-03T00:25:07.766Z,1033.01
2019-01-03T00:26:06.880Z,1033.01
2019-01-03T00:27:06.871Z,1033.06
2019-01-03T00:28:06.866Z,1033.04
2019-01-03T00:29:07.768Z,1033.00
2019-01-03T00:30:06.827Z,1033.00
2019-01-03T00:31:06.814Z,1033.01
2019-01-03T00:32:06.821Z,1033.07
2019-01-03T00:33:07.771Z,1033.05
2019-01-03T00:34:06.777Z,1033.03
2019-01-03T00:35:06.779Z,1032.93
2019-01-03T00:36:07.279Z,1032.93
2019-01-03T00:37:07.270Z,1033.03
2019-01-03T00:38:06.759Z,1032.97
2019-01-03T00:39:06.723Z,1033.02
2019-01-03T00:40:06.725Z,1032.97
2019-01-03T00:41:07.270Z,1033.03
2019-01-03T00:42:07.280Z,1032.96
2019-01-03T00:43:06.702Z,1032.92
2019-01-03T00:44:07.270Z,1032.83
2019-01-03T00:45:07.314Z,1032.94
2019-01-03T00:46:07.276Z,1032.94
2019-01-03T00:47:06.637Z,1032.97
2019-01-03T00:48:06.644Z,1032.90
2019-01-03T00:49:06.613Z,1032.95
2019-01-03T00:50:06.616Z,1032.98
2019-01-03T00:51:06.592Z,1033.00
2019-01-03T00:52:06.581Z,1033.06
2019-01-03T00:53:06.588Z,1033.01
2019-01-03T00:54:06.558Z,1032.98
2019-01-03T00:55:06.560Z,1032.96
2019-01-03T00:56:06.536Z,1033.02
2019-01-03T00:57:06.532Z,1033.02
2019-01-03T00:58:06.532Z,1033.14
2019-01-03T00:59:07.274Z,1033.16
2019-01-03T01:00:06.493Z,1033.11
2019-01-03T01:01:07.271Z,1033.13
2019-01-03T01:02:06.472Z,1033.21
2019-01-03T01:03:06.477Z,1033.21
2019-01-03T01:04:07.275Z,1033.26
2019-01-03T01:05:06.443Z,1033.17
2019-01-03T01:06:06.426Z,1033.29
2019-01-03T01:07:06.418Z,1033.30
2019-01-03T01:08:06.425Z,1033.28
2019-01-03T01:09:07.287Z,1033.23
2019-01-03T01:10:06.389Z,1033.34
2019-01-03T01:11:07.275Z,1033.28
2019-01-03T01:12:06.366Z,1033.30
2019-01-03T01:13:06.372Z,1033.22
2019-01-03T01:14:07.282Z,1033.27
2019-01-03T01:15:06.329Z,1033.30
2019-01-03T01:16:06.326Z,1033.32
2019-01-03T01:17:06.315Z,1033.36
2019-01-03T01:18:06.315Z,1033.33
2019-01-03T01:19:07.278Z,1033.37
2019-01-03T01:20:06.278Z,1033.39
2019-01-03T01:21:06.266Z,1033.39
2019-01-03T01:22:06.778Z,1033.43
2019-01-03T01:23:06.265Z,1033.43
2019-01-03T01:24:06.233Z,1033.46
2019-01-03T01:25:06.223Z,1033.45
2019-01-03T01:26:06.218Z,1033.51
2019-01-03T01:27:06.203Z,1033.51
2019-01-03T01:28:06.288Z,1033.46
2019-01-03T01:29:06.182Z,1033.47
2019-01-03T01:30:06.168Z,1033.48
2019-01-03T01:31:06.159Z,1033.49
2019-01-03T01:32:06.149Z,1033.50
2019-01-03T01:33:06.285Z,1033.46
2019-01-03T01:34:06.124Z,1033.52
2019-01-03T01:35:06.114Z,1033.55
2019-01-03T01:36:06.110Z,1033.55
2019-01-03T01:37:06.095Z,1033.56
2019-01-03T01:38:06.291Z,1033.56
2019-01-03T01:39:06.070Z,1033.56
2019-01-03T01:40:06.777Z,1033.55
2019-01-03T01:41:06.046Z,1033.56
2019-01-03T01:42:06.040Z,1033.54
2019-01-03T01:43:06.047Z,1033.60
2019-01-03T01:44:06.017Z,1033.62
2019-01-03T01:45:06.773Z,1033.63
2019-01-03T01:46:06.774Z,1033.66
2019-01-03T01:47:05.987Z,1033.68
2019-01-03T01:48:06.291Z,1033.69
2019-01-03T01:49:05.967Z,1033.71
2019-01-03T01:50:06.774Z,1033.67
2019-01-03T01:51:06.785Z,1033.69
2019-01-03T01:52:05.936Z,1033.75
2019-01-03T01:53:05.946Z,1033.74
2019-01-03T01:54:06.777Z,1033.74
2019-01-03T01:55:05.896Z,1033.75
2019-01-03T01:56:06.771Z,1033.77
2019-01-03T01:57:05.884Z,1033.71
2019-01-03T01:58:05.890Z,1033.69
2019-01-03T01:59:05.856Z,1033.73
2019-01-03T02:00:06.776Z,1033.73
2019-01-03T02:01:05.834Z,1033.68
2019-01-03T02:02:05.822Z,1033.72
2019-01-03T02:03:05.831Z,1033.68
2019-01-03T02:04:05.803Z,1033.68
2019-01-03T02:05:05.788Z,1033.66
2019-01-03T02:06:05.783Z,1033.69
2019-01-03T02:07:06.281Z,1033.70
2019-01-03T02:08:05.793Z,1033.75
2019-01-03T02:09:05.746Z,1033.75
2019-01-03T02:10:05.736Z,1033.74
2019-01-03T02:11:05.723Z,1033.75
2019-01-03T02:12:06.287Z,1033.77
2019-01-03T02:13:05.842Z,1033.76
2019-01-03T02:14:06.276Z,1033.78
2019-01-03T02:15:05.689Z,1033.76
2019-01-03T02:16:05.678Z,1033.79
2019-01-03T02:17:05.663Z,1033.77
2019-01-03T02:18:05.785Z,1033.78
2019-01-03T02:19:05.636Z,1033.80
2019-01-03T02:20:05.647Z,1033.79
2019-01-03T02:21:05.617Z,1033.82
2019-01-03T02:22:06.286Z,1033.80
2019-01-03T02:23:05.790Z,1033.80
2019-01-03T02:24:05.586Z,1033.79
2019-01-03T02:25:05.576Z,1033.80
2019-01-03T02:26:06.278Z,1033.77
2019-01-03T02:27:05.557Z,1033.77
2019-01-03T02:28:05.788Z,1033.74
2019-01-03T02:29:05.533Z,1033.71
2019-01-03T02:30:05.524Z,1033.68
2019-01-03T02:31:06.283Z,1033.68
2019-01-03T02:32:05.497Z,1033.72
2019-01-03T02:33:05.792Z,1033.68
2019-01-03T02:34:05.472Z,1033.72
2019-01-03T02:35:05.462Z,1033.70
2019-01-03T02:36:06.277Z,1033.68
2019-01-03T02:37:06.281Z,1033.72
2019-01-03T02:38:05.466Z,1033.69
2019-01-03T02:39:05.420Z,1033.70
2019-01-03T02:40:05.410Z,1033.63
2019-01-03T02:41:05.404Z,1033.71
2019-01-03T02:42:05.392Z,1033.63
2019-01-03T02:43:05.422Z,1033.61
2019-01-03T02:44:05.373Z,1033.65
2019-01-03T02:45:06.281Z,1033.62
2019-01-03T02:46:05.342Z,1033.63
2019-01-03T02:47:06.275Z,1033.58
2019-01-03T02:48:06.301Z,1033.59
2019-01-03T02:49:05.319Z,1033.58
2019-01-03T02:50:05.303Z,1033.54
2019-01-03T02:51:06.299Z,1033.50
2019-01-03T02:52:05.786Z,1033.48
2019-01-03T02:53:05.780Z,1033.48
2019-01-03T02:54:05.301Z,1033.48
2019-01-03T02:55:05.249Z,1033.49
2019-01-03T02:56:05.237Z,1033.47
2019-01-03T02:57:05.229Z,1033.49
2019-01-03T02:58:05.804Z,1033.46
2019-01-03T02:59:05.302Z,1033.42
2019-01-03T03:00:05.194Z,1033.41
2019-01-03T03:01:05.186Z,1033.42
2019-01-03T03:02:05.177Z,1033.43
2019-01-03T03:03:05.196Z,1033.39
2019-01-03T03:04:05.183Z,1033.40
2019-01-03T03:05:05.780Z,1033.35
2019-01-03T03:06:05.812Z,1033.38
2019-01-03T03:07:05.123Z,1033.33
2019-01-03T03:08:05.779Z,1033.38
2019-01-03T03:09:05.114Z,1033.36
2019-01-03T03:10:05.089Z,1033.36
2019-01-03T03:11:05.798Z,1033.36
2019-01-03T03:12:05.068Z,1033.31
2019-01-03T03:13:05.787Z,1033.29
2019-01-03T03:14:05.080Z,1033.27
2019-01-03T03:15:05.029Z,1033.28
2019-01-03T03:16:05.784Z,1033.23
2019-01-03T03:17:05.026Z,1033.26
2019-01-03T03:18:05.032Z,1033.20
2019-01-03T03:19:05.314Z,1033.18
2019-01-03T03:20:04.978Z,1033.21
2019-01-03T03:21:04.970Z,1033.21
2019-01-03T03:22:04.961Z,1033.22
2019-01-03T03:23:05.785Z,1033.22
2019-01-03T03:24:04.958Z,1033.18
2019-01-03T03:25:04.925Z,1033.17
2019-01-03T03:26:04.948Z,1033.17
2019-01-03T03:27:04.915Z,1033.20
2019-01-03T03:28:05.784Z,1033.19
2019-01-03T03:29:05.300Z,1033.14
2019-01-03T03:30:04.883Z,1033.16
2019-01-03T03:31:04.866Z,1033.14
2019-01-03T03:32:04.856Z,1033.16
2019-01-03T03:33:05.790Z,1033.16
2019-01-03T03:34:05.298Z,1033.17
2019-01-03T03:35:05.783Z,1033.15
2019-01-03T03:36:05.780Z,1033.10
2019-01-03T03:37:04.806Z,1033.15
2019-01-03T03:38:04.787Z,1033.20
2019-01-03T03:39:04.792Z,1033.12
2019-01-03T03:40:04.780Z,1033.19
2019-01-03T03:41:05.322Z,1033.15
2019-01-03T03:42:04.737Z,1033.15
2019-01-03T03:43:04.728Z,1033.17
2019-01-03T03:44:04.799Z,1033.17
2019-01-03T03:45:05.324Z,1033.21
2019-01-03T03:46:05.330Z,1033.19
2019-01-03T03:47:04.691Z,1033.18
2019-01-03T03:48:04.676Z,1033.20
2019-01-03T03:49:04.696Z,1033.18
2019-01-03T03:50:04.659Z,1033.17
2019-01-03T03:51:04.650Z,1033.15
2019-01-03T03:52:05.285Z,1033.21
2019-01-03T03:53:04.620Z,1033.19
2019-01-03T03:54:04.635Z,1033.20
2019-01-03T03:55:04.597Z,1033.22
2019-01-03T03:56:04.586Z,1033.22
2019-01-03T03:57:04.584Z,1033.24
2019-01-03T03:58:05.287Z,1033.25
2019-01-03T03:59:04.601Z,1033.24
2019-01-03T04:00:04.544Z,1033.21
2019-01-03T04:01:05.281Z,1033.22
2019-01-03T04:02:04.525Z,1033.15
2019-01-03T04:03:04.512Z,1033.16
2019-01-03T04:04:04.821Z,1033.08
2019-01-03T04:05:04.488Z,1033.17
2019-01-03T04:06:04.475Z,1033.17
2019-01-03T04:07:04.461Z,1033.16
2019-01-03T04:08:04.455Z,1033.17
2019-01-03T04:09:04.469Z,1033.11
2019-01-03T04:10:04.431Z,1033.14
2019-01-03T04:11:04.419Z,1033.13
2019-01-03T04:12:04.408Z,1033.11
2019-01-03T04:13:04.401Z,1033.14
2019-01-03T04:14:04.417Z,1033.11
2019-01-03T04:15:04.396Z,1033.08
2019-01-03T04:16:04.365Z,1033.14
2019-01-03T04:17:04.356Z,1033.19
2019-01-03T04:18:04.344Z,1033.12
2019-01-03T04:19:04.797Z,1033.15
2019-01-03T04:20:05.314Z,1033.16
2019-01-03T04:21:05.281Z,1033.07
2019-01-03T04:22:04.301Z,1033.07
2019-01-03T04:23:04.287Z,1033.09
2019-01-03T04:24:04.288Z,1033.13
2019-01-03T04:25:04.277Z,1033.09
2019-01-03T04:26:04.791Z,1033.16
2019-01-03T04:27:04.254Z,1033.16
2019-01-03T04:28:04.235Z,1033.11
2019-01-03T04:29:04.242Z,1033.08
2019-01-03T04:30:04.267Z,1033.02
2019-01-03T04:31:04.200Z,1033.00
2019-01-03T04:32:04.190Z,1033.01
2019-01-03T04:33:04.178Z,1033.02
2019-01-03T04:34:04.185Z,1033.02
2019-01-03T04:35:04.164Z,1032.98
2019-01-03T04:36:04.142Z,1032.98
2019-01-03T04:37:04.788Z,1032.97
2019-01-03T04:38:04.136Z,1032.96
2019-01-03T04:39:04.132Z,1032.97
2019-01-03T04:40:04.107Z,1033.00
2019-01-03T04:41:04.090Z,1033.01
2019-01-03T04:42:04.080Z,1033.03
2019-01-03T04:43:04.785Z,1033.00
2019-01-03T04:44:04.088Z,1033.03
2019-01-03T04:45:04.051Z,1033.02
2019-01-03T04:46:04.035Z,1033.05
2019-01-03T04:47:04.028Z,1033.10
2019-01-03T04:48:04.013Z,1033.03
2019-01-03T04:49:04.024Z,1033.09
2019-01-03T04:50:04.010Z,1033.07
2019-01-03T04:51:03.986Z,1033.07
2019-01-03T04:52:04.789Z,1033.03
2019-01-03T04:53:03.966Z,1033.08
2019-01-03T04:54:04.817Z,1033.12
2019-01-03T04:55:03.949Z,1033.05
2019-01-03T04:56:03.932Z,1033.09
2019-01-03T04:57:03.919Z,1033.09
2019-01-03T04:58:03.904Z,1033.04
2019-01-03T04:59:04.788Z,1033.08
2019-01-03T05:00:04.305Z,1033.02
2019-01-03T05:01:03.871Z,1033.03
2019-01-03T05:02:03.863Z,1033.03
2019-01-03T05:03:03.854Z,1033.04
2019-01-03T05:04:03.841Z,1033.03
2019-01-03T05:05:03.853Z,1033.04
2019-01-03T05:06:03.827Z,1033.13
2019-01-03T05:07:04.788Z,1033.06
2019-01-03T05:08:03.801Z,1033.08
2019-01-03T05:09:03.791Z,1033.07
2019-01-03T05:10:03.792Z,1033.13
2019-01-03T05:11:03.766Z,1033.17
2019-01-03T05:12:03.758Z,1033.20
2019-01-03T05:13:03.746Z,1033.19
2019-01-03T05:14:03.731Z,1033.17
2019-01-03T05:15:03.737Z,1033.16
2019-01-03T05:16:04.328Z,1033.09
2019-01-03T05:17:03.702Z,1033.12
2019-01-03T05:18:03.688Z,1033.12
2019-01-03T05:19:03.688Z,1033.11
2019-01-03T05:20:03.797Z,1033.03
2019-01-03T05:21:03.662Z,1033.09
2019-01-03T05:22:04.292Z,1033.02
2019-01-03T05:23:03.634Z,1033.04
2019-01-03T05:24:03.622Z,1033.07
2019-01-03T05:25:03.628Z,1033.04
2019-01-03T05:26:03.627Z,1032.99
2019-01-03T05:27:03.591Z,1033.03
2019-01-03T05:28:03.581Z,1033.03
2019-01-03T05:29:04.291Z,1033.01
2019-01-03T05:30:03.582Z,1033.04
2019-01-03T05:31:03.575Z,1032.98
2019-01-03T05:32:03.532Z,1032.98
2019-01-03T05:33:03.528Z,1033.03
2019-01-03T05:34:04.305Z,1032.94
2019-01-03T05:35:03.803Z,1033.05
2019-01-03T05:36:03.520Z,1033.01
2019-01-03T05:37:03.478Z,1032.99
2019-01-03T05:38:03.469Z,1032.94
2019-01-03T05:39:03.455Z,1032.98
2019-01-03T05:40:03.807Z,1033.00
2019-01-03T05:41:05.128Z,1033.02
2019-01-03T05:42:03.426Z,1032.97
2019-01-03T05:43:03.413Z,1032.98
2019-01-03T05:44:04.301Z,1032.99
2019-01-03T05:45:03.416Z,1033.00
2019-01-03T05:46:03.399Z,1033.02
2019-01-03T05:47:03.372Z,1032.99
2019-01-03T05:48:03.363Z,1032.97
2019-01-03T05:49:04.298Z,1033.03
2019-01-03T05:50:03.816Z,1033.02
2019-01-03T05:51:04.295Z,1033.06
2019-01-03T05:52:03.324Z,1033.08
2019-01-03T05:53:04.297Z,1033.09
2019-01-03T05:54:03.299Z,1033.03
2019-01-03T05:55:03.305Z,1033.04
2019-01-03T05:56:03.273Z,1033.04
2019-01-03T05:57:03.793Z,1033.04
2019-01-03T05:58:03.791Z,1033.15
2019-01-03T05:59:03.240Z,1033.14
2019-01-03T06:00:03.241Z,1033.12
2019-01-03T06:01:03.216Z,1033.13
2019-01-03T06:02:03.205Z,1033.12
2019-01-03T06:03:03.196Z,1033.15
2019-01-03T06:04:03.186Z,1033.17
2019-01-03T06:05:03.193Z,1033.15
2019-01-03T06:06:03.788Z,1033.16
2019-01-03T06:07:03.155Z,1033.15
2019-01-03T06:08:03.142Z,1033.04
2019-01-03T06:09:03.134Z,1033.09
2019-01-03T06:10:03.135Z,1033.16
2019-01-03T06:11:03.114Z,1033.12
2019-01-03T06:12:03.099Z,1033.13
2019-01-03T06:13:03.096Z,1033.13
2019-01-03T06:14:03.081Z,1033.14
2019-01-03T06:15:03.681Z,1033.19
2019-01-03T06:16:03.055Z,1033.19
2019-01-03T06:17:03.040Z,1033.13
2019-01-03T06:18:03.032Z,1033.15
2019-01-03T06:19:03.795Z,1033.11
2019-01-03T06:20:03.313Z,1033.16
2019-01-03T06:21:03.976Z,1033.16
2019-01-03T06:22:03.792Z,1033.22
2019-01-03T06:23:02.974Z,1033.18
2019-01-03T06:24:02.963Z,1033.19
2019-01-03T06:25:03.310Z,1033.19
2019-01-03T06:26:02.944Z,1033.20
2019-01-03T06:27:02.939Z,1033.19
2019-01-03T06:28:02.932Z,1033.15
2019-01-03T06:29:02.924Z,1033.22
2019-01-03T06:30:02.963Z,1033.15
2019-01-03T06:31:02.900Z,1033.12
2019-01-03T06:32:02.877Z,1033.15
2019-01-03T06:33:03.801Z,1033.14
2019-01-03T06:34:02.861Z,1033.11
2019-01-03T06:35:02.866Z,1033.14
2019-01-03T06:36:03.795Z,1033.08
2019-01-03T06:37:02.830Z,1033.12
2019-01-03T06:38:02.815Z,1033.18
2019-01-03T06:39:02.801Z,1033.11
2019-01-03T06:40:02.809Z,1033.12
2019-01-03T06:41:02.778Z,1033.19
2019-01-03T06:42:02.765Z,1033.18
2019-01-03T06:43:02.762Z,1033.17
2019-01-03T06:44:02.743Z,1033.24
2019-01-03T06:45:02.747Z,1033.25
2019-01-03T06:46:02.727Z,1033.23
2019-01-03T06:47:02.713Z,1033.22
2019-01-03T06:48:02.715Z,1033.13
2019-01-03T06:49:02.694Z,1033.21
2019-01-03T06:50:02.803Z,1033.19
2019-01-03T06:51:02.670Z,1033.19
2019-01-03T06:52:02.657Z,1033.16
2019-01-03T06:53:02.646Z,1033.16
2019-01-03T06:54:02.639Z,1033.16
2019-01-03T06:55:02.653Z,1033.17
2019-01-03T06:56:02.617Z,1033.17
2019-01-03T06:57:02.605Z,1033.16
2019-01-03T06:58:02.591Z,1033.21
2019-01-03T06:59:02.604Z,1033.18
2019-01-03T07:00:02.822Z,1033.19
2019-01-03T07:01:03.297Z,1033.20
2019-01-03T07:02:02.543Z,1033.13
2019-01-03T07:03:02.544Z,1033.20
2019-01-03T07:04:02.540Z,1033.23
2019-01-03T07:05:02.511Z,1033.17
2019-01-03T07:06:02.813Z,1033.18
2019-01-03T07:07:02.492Z,1033.21
2019-01-03T07:08:02.486Z,1033.21
2019-01-03T07:09:02.490Z,1033.25
2019-01-03T07:10:02.465Z,1033.21
2019-01-03T07:11:02.460Z,1033.27
2019-01-03T07:12:02.436Z,1033.27
2019-01-03T07:13:02.446Z,1033.26
2019-01-03T07:14:03.291Z,1033.30
2019-01-03T07:15:02.411Z,1033.31
2019-01-03T07:16:02.815Z,1033.28
2019-01-03T07:17:02.379Z,1033.28
2019-01-03T07:18:02.375Z,1033.37
2019-01-03T07:19:02.371Z,1033.41
2019-01-03T07:20:02.358Z,1033.38
2019-01-03T07:21:02.381Z,1033.45
2019-01-03T07:22:02.327Z,1033.43
2019-01-03T07:23:02.317Z,1033.38
2019-01-03T07:24:02.315Z,1033.36
2019-01-03T07:25:02.293Z,1033.35
2019-01-03T07:26:02.308Z,1033.39
2019-01-03T07:27:02.271Z,1033.38
2019-01-03T07:28:02.265Z,1033.39
2019-01-03T07:29:02.256Z,1033.30
2019-01-03T07:30:02.241Z,1033.32
2019-01-03T07:31:02.260Z,1033.27
2019-01-03T07:32:02.219Z,1033.28
2019-01-03T07:33:02.797Z,1033.30
2019-01-03T07:34:02.196Z,1033.36
2019-01-03T07:35:02.797Z,1033.35
2019-01-03T07:36:02.200Z,1033.37
2019-01-03T07:37:02.166Z,1033.38
2019-01-03T07:38:02.151Z,1033.36
2019-01-03T07:39:02.148Z,1033.37
2019-01-03T07:40:02.139Z,1033.42
2019-01-03T07:41:02.181Z,1033.40
2019-01-03T07:42:02.105Z,1033.46
2019-01-03T07:43:02.093Z,1033.43
2019-01-03T07:44:02.098Z,1033.49
2019-01-03T07:45:02.798Z,1033.51
2019-01-03T07:46:02.080Z,1033.51
2019-01-03T07:47:02.051Z,1033.50
2019-01-03T07:48:02.046Z,1033.55
2019-01-03T07:49:02.041Z,1033.48
2019-01-03T07:50:02.017Z,1033.59
2019-01-03T07:51:02.021Z,1033.55
2019-01-03T07:52:01.994Z,1033.59
2019-01-03T07:53:01.987Z,1033.55
2019-01-03T07:54:01.978Z,1033.55
2019-01-03T07:55:02.018Z,1033.51
2019-01-03T07:56:01.966Z,1033.43
2019-01-03T07:57:01.947Z,1033.51
2019-01-03T07:58:01.937Z,1033.52
2019-01-03T07:59:01.931Z,1033.47
2019-01-03T08:00:01.922Z,1033.48
2019-01-03T08:01:01.924Z,1033.47
2019-01-03T08:02:01.887Z,1033.55
2019-01-03T08:03:01.881Z,1033.52
2019-01-03T08:04:01.866Z,1033.57
2019-01-03T08:05:01.857Z,1033.55
2019-01-03T08:06:01.867Z,1033.53
2019-01-03T08:07:01.833Z,1033.55
2019-01-03T08:08:01.824Z,1033.58
2019-01-03T08:09:01.817Z,1033.60
2019-01-03T08:10:02.297Z,1033.62
2019-01-03T08:11:01.802Z,1033.57
2019-01-03T08:12:01.786Z,1033.66
2019-01-03T08:13:01.774Z,1033.58
2019-01-03T08:14:01.757Z,1033.69
2019-01-03T08:15:02.298Z,1033.65
2019-01-03T08:16:01.812Z,1033.68
2019-01-03T08:17:01.722Z,1033.66
2019-01-03T08:18:01.711Z,1033.68
2019-01-03T08:19:01.704Z,1033.70
2019-01-03T08:20:01.688Z,1033.67
2019-01-03T08:21:01.697Z,1033.70
2019-01-03T08:22:01.669Z,1033.72
2019-01-03T08:23:01.659Z,1033.73
2019-01-03T08:24:01.646Z,1033.72
2019-01-03T08:25:01.638Z,1033.68
2019-01-03T08:26:01.808Z,1033.74
2019-01-03T08:27:01.611Z,1033.72
2019-01-03T08:28:02.304Z,1033.75
2019-01-03T08:29:01.585Z,1033.76
2019-01-03T08:30:01.580Z,1033.82
2019-01-03T08:31:01.578Z,1033.80
2019-01-03T08:32:01.580Z,1033.82
2019-01-03T08:33:01.561Z,1033.77
2019-01-03T08:34:01.535Z,1033.80
2019-01-03T08:35:01.540Z,1033.78
2019-01-03T08:36:01.617Z,1033.77
2019-01-03T08:37:01.504Z,1033.71
2019-01-03T08:38:01.503Z,1033.76
2019-01-03T08:39:01.495Z,1033.74
2019-01-03T08:40:01.481Z,1033.71
2019-01-03T08:41:01.470Z,1033.75
2019-01-03T08:42:01.453Z,1033.75
2019-01-03T08:43:01.443Z,1033.77
2019-01-03T08:44:02.303Z,1033.76
2019-01-03T08:45:02.301Z,1033.78
2019-01-03T08:46:01.815Z,1033.78
2019-01-03T08:47:01.402Z,1033.76
2019-01-03T08:48:01.382Z,1033.81
2019-01-03T08:49:01.368Z,1033.82
2019-01-03T08:50:03.368Z,1033.84
2019-01-03T08:51:01.369Z,1033.87
2019-01-03T08:52:02.298Z,1033.88
2019-01-03T08:53:01.325Z,1033.90
2019-01-03T08:54:02.383Z,1033.90
2019-01-03T08:55:02.356Z,1033.93
2019-01-03T08:56:01.333Z,1033.90
2019-01-03T08:57:01.843Z,1033.89
2019-01-03T08:58:01.268Z,1033.93
2019-01-03T08:59:01.799Z,1033.90
2019-01-03T09:00:01.247Z,1033.94
2019-01-03T09:01:01.264Z,1033.94
2019-01-03T09:02:01.227Z,1033.93
2019-01-03T09:03:01.799Z,1033.95
2019-01-03T09:04:01.204Z,1033.94
2019-01-03T09:05:01.223Z,1033.99
2019-01-03T09:06:01.206Z,1034.02
2019-01-03T09:07:01.813Z,1034.01
2019-01-03T09:08:01.160Z,1034.03
2019-01-03T09:09:01.184Z,1034.07
2019-01-03T09:10:01.830Z,1034.08
2019-01-03T09:11:01.133Z,1034.05
2019-01-03T09:12:01.161Z,1034.07
2019-01-03T09:13:01.122Z,1034.05
2019-01-03T09:14:01.111Z,1033.92
2019-01-03T09:15:01.085Z,1033.94
2019-01-03T09:16:01.803Z,1033.94
2019-01-03T09:17:01.080Z,1033.99
2019-01-03T09:18:01.052Z,1033.98
2019-01-03T09:19:01.054Z,1034.01
2019-01-03T09:20:01.820Z,1034.06
2019-01-03T09:21:01.079Z,1034.04
2019-01-03T09:22:01.054Z,1034.09
2019-01-03T09:23:01.000Z,1034.06
2019-01-03T09:24:00.982Z,1034.04
2019-01-03T09:25:00.982Z,1034.10
2019-01-03T09:26:01.004Z,1034.07
2019-01-03T09:27:01.000Z,1034.08
2019-01-03T09:28:00.962Z,1034.09
2019-01-03T09:29:00.926Z,1034.13
2019-01-03T09:30:00.920Z,1034.12
2019-01-03T09:31:00.906Z,1034.08
2019-01-03T09:32:00.909Z,1034.08
2019-01-03T09:33:01.804Z,1034.14
2019-01-03T09:34:00.870Z,1034.09
2019-01-03T09:35:00.888Z,1034.15
2019-01-03T09:36:00.858Z,1034.11
2019-01-03T09:37:01.321Z,1034.16
2019-01-03T09:38:01.828Z,1034.12
2019-01-03T09:39:00.823Z,1034.11
2019-01-03T09:40:00.811Z,1034.13
2019-01-03T09:41:00.792Z,1034.15
2019-01-03T09:42:00.803Z,1034.17
2019-01-03T09:43:00.773Z,1034.17
2019-01-03T09:44:01.305Z,1034.21
2019-01-03T09:45:00.750Z,1034.17
2019-01-03T09:46:00.755Z,1034.18
2019-01-03T09:47:00.847Z,1034.18
2019-01-03T09:48:00.719Z,1034.19
2019-01-03T09:49:01.301Z,1034.13
2019-01-03T09:50:01.335Z,1034.16
2019-01-03T09:51:01.304Z,1034.23
2019-01-03T09:52:00.851Z,1034.20
2019-01-03T09:53:00.680Z,1034.17
2019-01-03T09:54:00.647Z,1034.12
2019-01-03T09:55:00.679Z,1034.03
2019-01-03T09:56:00.635Z,1034.09
2019-01-03T09:57:00.632Z,1034.06
2019-01-03T09:58:00.628Z,1033.96
2019-01-03T09:59:01.316Z,1033.99
2019-01-03T10:00:01.318Z,1034.02
2019-01-03T10:01:01.324Z,1034.00
2019-01-03T10:02:00.656Z,1033.98
2019-01-03T10:03:00.561Z,1034.00
2019-01-03T10:04:00.554Z,1033.99
2019-01-03T10:05:00.537Z,1034.02
2019-01-03T10:06:00.568Z,1034.05
2019-01-03T10:07:00.823Z,1034.08
2019-01-03T10:08:00.498Z,1034.05
2019-01-03T10:09:01.333Z,1034.05
2019-01-03T10:10:00.511Z,1034.01
2019-01-03T10:11:00.509Z,1033.99
2019-01-03T10:12:00.474Z,1034.03
2019-01-03T10:13:00.444Z,1033.99
2019-01-03T10:14:00.435Z,1034.03
2019-01-03T10:15:01.312Z,1034.04
2019-01-03T10:16:01.317Z,1034.07
2019-01-03T10:17:00.817Z,1034.02
2019-01-03T10:18:01.300Z,1034.01
2019-01-03T10:19:01.327Z,1033.98
2019-01-03T10:20:01.314Z,1034.00
2019-01-03T10:21:00.359Z,1033.99
2019-01-03T10:22:00.360Z,1033.99
2019-01-03T10:23:00.355Z,1033.90
2019-01-03T10:24:01.308Z,1033.93
2019-01-03T10:25:01.304Z,1033.95
2019-01-03T10:26:00.300Z,1033.99
2019-01-03T10:27:00.327Z,1033.83
2019-01-03T10:28:00.276Z,1033.94
2019-01-03T10:29:00.271Z,1033.95
2019-01-03T10:30:00.860Z,1033.87
2019-01-03T10:31:00.812Z,1033.81
2019-01-03T10:32:00.330Z,1033.83
2019-01-03T10:33:00.223Z,1033.83
2019-01-03T10:34:00.211Z,1033.79
2019-01-03T10:35:00.239Z,1033.84
2019-01-03T10:36:00.210Z,1033.79
2019-01-03T10:37:00.194Z,1033.80
2019-01-03T10:38:00.172Z,1033.75
2019-01-03T10:39:00.174Z,1033.74
2019-01-03T10:40:00.203Z,1033.74
2019-01-03T10:41:00.160Z,1033.71
2019-01-03T10:42:00.140Z,1033.72
2019-01-03T10:43:00.115Z,1033.66
2019-01-03T10:44:00.102Z,1033.66
2019-01-03T10:45:00.166Z,1033.62
2019-01-03T10:46:00.089Z,1033.61
2019-01-03T10:47:00.103Z,1033.63
2019-01-03T10:48:00.057Z,1033.63
2019-01-03T10:49:00.053Z,1033.64
2019-01-03T10:50:00.034Z,1033.62
2019-01-03T10:51:00.023Z,1033.55
2019-01-03T10:52:00.036Z,1033.58
2019-01-03T10:53:00.804Z,1033.52
2019-01-03T10:54:00.835Z,1033.60
2019-01-03T10:55:00.802Z,1033.58
2019-01-03T10:55:59.971Z,1033.66
2019-01-03T10:56:59.977Z,1033.67
2019-01-03T10:57:59.948Z,1033.64
2019-01-03T10:58:59.938Z,1033.71
2019-01-03T11:00:00.864Z,1033.68
2019-01-03T11:01:00.817Z,1033.74
2019-01-03T11:01:59.938Z,1033.71
2019-01-03T11:02:59.926Z,1033.72
2019-01-03T11:04:00.806Z,1033.72
2019-01-03T11:05:00.805Z,1033.70
2019-01-03T11:05:59.862Z,1033.70
2019-01-03T11:06:59.867Z,1033.67
2019-01-03T11:08:00.812Z,1033.70
2019-01-03T11:08:59.835Z,1033.64
2019-01-03T11:09:59.827Z,1033.62
2019-01-03T11:11:02.175Z,1033.59
2019-01-03T11:11:59.815Z,1033.60
2019-01-03T11:13:00.346Z,1033.59
2019-01-03T11:13:59.815Z,1033.59
2019-01-03T11:14:59.764Z,1033.63
2019-01-03T11:15:59.752Z,1033.59
2019-01-03T11:16:59.777Z,1033.57
2019-01-03T11:18:00.325Z,1033.60
2019-01-03T11:18:59.736Z,1033.61
2019-01-03T11:19:59.716Z,1033.64
2019-01-03T11:20:59.700Z,1033.61
2019-01-03T11:21:59.696Z,1033.52
2019-01-03T11:22:59.854Z,1033.56
2019-01-03T11:23:59.679Z,1033.54
2019-01-03T11:25:00.307Z,1033.55
2019-01-03T11:26:00.306Z,1033.53
2019-01-03T11:26:59.635Z,1033.50
2019-01-03T11:27:59.636Z,1033.48
2019-01-03T11:28:59.619Z,1033.41
2019-01-03T11:29:59.601Z,1033.41
2019-01-03T11:30:59.604Z,1033.42
2019-01-03T11:32:00.316Z,1033.35
2019-01-03T11:32:59.586Z,1033.33
2019-01-03T11:33:59.564Z,1033.32
2019-01-03T11:35:00.323Z,1033.34
2019-01-03T11:35:59.546Z,1033.24
2019-01-03T11:36:59.553Z,1033.32
2019-01-03T11:37:59.559Z,1033.35
2019-01-03T11:39:00.314Z,1033.34
2019-01-03T11:39:59.494Z,1033.30
2019-01-03T11:40:59.488Z,1033.37
2019-01-03T11:42:00.311Z,1033.41
2019-01-03T11:42:59.476Z,1033.41
2019-01-03T11:43:59.460Z,1033.39
2019-01-03T11:44:59.438Z,1033.42
2019-01-03T11:45:59.432Z,1033.41
2019-01-03T11:46:59.469Z,1033.42
2019-01-03T11:47:59.820Z,1033.42
2019-01-03T11:48:59.454Z,1033.43
2019-01-03T11:50:00.312Z,1033.44
2019-01-03T11:50:59.376Z,1033.37
2019-01-03T11:51:59.384Z,1033.45
2019-01-03T11:52:59.407Z,1033.36
2019-01-03T11:53:59.367Z,1033.36
2019-01-03T11:54:59.337Z,1033.32
2019-01-03T11:55:59.327Z,1033.31
2019-01-03T11:56:59.307Z,1033.30
2019-01-03T11:57:59.341Z,1033.31
2019-01-03T11:58:59.823Z,1033.29
2019-01-03T11:59:59.288Z,1033.37
2019-01-03T12:00:59.266Z,1033.37
2019-01-03T12:01:59.810Z,1033.35
2019-01-03T12:02:59.264Z,1033.39
2019-01-03T12:03:59.237Z,1033.38
2019-01-03T12:04:59.248Z,1033.39